Time;durP1;ratioP1;P1;durP2;ratioP2;P2;SDS_P1;SDS_P2;PMS_P1;PMS_P2;Temp;Humidity;BMP_temperature;BMP_pressure;BME280_temperature;BME280_humidity;BME280_pressure;Samples;Min_cycle;Max_cycle;Signal;HPM_P1;HPM_P2
2021/04/07 00:01:28;;;;;;;13.67;6.87;;;;;;;;;;5113953;28;20501;-55
2021/04/07 00:03:57;;;;;;;11.03;7.03;;;;;;;;;;5113604;28;20085;-55
2021/04/07 00:06:41;;;;;;;9.93;6.20;;;;;;;;;;5113564;28;20482;-55
2021/04/07 00:09:13;;;;;;;10.77;6.93;;;;;;;;;;5113866;28;20023;-54
2021/04/07 00:11:43;;;;;;;10.20;6.70;;;;;;;;;;5113712;28;20065;-54
2021/04/07 00:14:11;;;;;;;12.97;7.20;;;;;;;;;;5113574;28;20402;-54
2021/04/07 00:16:39;;;;;;;10.10;7.03;;;;;;;;;;5113702;28;20108;-54
2021/04/07 00:19:11;;;;;;;7.93;6.50;;;;;;;;;;5113603;28;20023;-54
2021/04/07 00:21:45;;;;;;;7.97;5.67;;;;;;;;;;5113647;28;20023;-54
2021/04/07 00:24:23;;;;;;;;;;;;;;;;;;5114090;28;20451;-55
2021/04/07 00:27:07;;;;;;;11.20;6.03;;;;;;;;;;5112783;28;19916;-55
2021/04/07 00:29:36;;;;;;;11.20;6.00;;;;;;;;;;5113640;28;20028;-54
2021/04/07 00:32:05;;;;;;;12.33;5.97;;;;;;;;;;5113957;28;20020;-55
2021/04/07 00:34:34;;;;;;;8.23;5.70;;;;;;;;;;5113465;28;20019;-55
2021/04/07 00:37:03;;;;;;;12.57;6.67;;;;;;;;;;5113547;28;20059;-55
2021/04/07 00:39:33;;;;;;;11.07;6.63;;;;;;;;;;5113500;28;20106;-55
2021/04/07 00:42:05;;;;;;;11.43;6.77;;;;;;;;;;5113279;28;20034;-55
2021/04/07 00:44:32;;;;;;;15.83;7.67;;;;;;;;;;5113369;28;20032;-54
2021/04/07 00:46:59;;;;;;;15.27;9.67;;;;;;;;;;5113283;28;20437;-55
2021/04/07 00:49:26;;;;;;;16.60;8.40;;;;;;;;;;5113265;28;20065;-55
2021/04/07 00:51:53;;;;;;;19.53;10.30;;;;;;;;;;5113347;28;20078;-55
2021/04/07 00:54:20;;;;;;;20.67;9.93;;;;;;;;;;5113206;28;20020;-55
2021/04/07 00:56:48;;;;;;;16.50;8.83;;;;;;;;;;5113160;28;20599;-55
2021/04/07 00:59:16;;;;;;;15.00;8.20;;;;;;;;;;5113314;28;20505;-55
2021/04/07 01:01:43;;;;;;;12.20;7.87;;;;;;;;;;5113154;28;20032;-55
2021/04/07 01:04:10;;;;;;;9.90;7.00;;;;;;;;;;5113120;28;20031;-55
2021/04/07 01:06:38;;;;;;;14.73;7.80;;;;;;;;;;5113250;28;20018;-55
2021/04/07 01:09:10;;;;;;;16.33;8.27;;;;;;;;;;5095138;28;20118;-55
2021/04/07 01:11:37;;;;;;;14.30;7.90;;;;;;;;;;5113127;28;20023;-55
2021/04/07 01:14:04;;;;;;;13.57;8.37;;;;;;;;;;5113343;28;20019;-55
2021/04/07 01:16:31;;;;;;;17.27;8.67;;;;;;;;;;5113073;28;20020;-55
2021/04/07 01:18:58;;;;;;;17.73;9.03;;;;;;;;;;5113111;28;20011;-55
2021/04/07 01:21:25;;;;;;;23.67;8.23;;;;;;;;;;5113028;28;20089;-55
2021/04/07 01:23:51;;;;;;;15.90;8.07;;;;;;;;;;5112869;28;20178;-55
2021/04/07 01:26:18;;;;;;;19.53;9.27;;;;;;;;;;5112429;28;20105;-55
2021/04/07 01:28:45;;;;;;;14.10;8.67;;;;;;;;;;5113076;28;20474;-55
2021/04/07 01:31:12;;;;;;;18.77;8.73;;;;;;;;;;5113026;28;20054;-55
2021/04/07 01:33:39;;;;;;;16.20;7.33;;;;;;;;;;5113006;28;20068;-54
2021/04/07 01:36:06;;;;;;;15.30;9.17;;;;;;;;;;5113132;28;20028;-55
2021/04/07 01:38:32;;;;;;;19.30;8.50;;;;;;;;;;5112946;28;20031;-55
2021/04/07 01:41:00;;;;;;;14.70;8.90;;;;;;;;;;5112745;28;20068;-55
2021/04/07 01:43:27;;;;;;;13.30;8.40;;;;;;;;;;5112772;28;20076;-55
2021/04/07 01:45:57;;;;;;;18.37;9.47;;;;;;;;;;5112717;28;20078;-55
2021/04/07 01:48:25;;;;;;;15.40;8.47;;;;;;;;;;5112759;28;20020;-55
2021/04/07 01:50:52;;;;;;;20.40;10.30;;;;;;;;;;5112861;28;20019;-55
2021/04/07 01:53:20;;;;;;;22.67;10.80;;;;;;;;;;5112648;28;20080;-55
2021/04/07 01:55:47;;;;;;;21.00;10.53;;;;;;;;;;5112710;28;20016;-55
2021/04/07 01:58:14;;;;;;;15.03;9.47;;;;;;;;;;5112771;28;20028;-55
2021/04/07 02:00:41;;;;;;;16.07;8.60;;;;;;;;;;5114174;28;20020;-55
2021/04/07 02:03:08;;;;;;;18.60;7.73;;;;;;;;;;5116496;28;20497;-55
2021/04/07 02:05:35;;;;;;;15.33;7.27;;;;;;;;;;5116231;28;20020;-55
2021/04/07 02:08:02;;;;;;;13.17;6.47;;;;;;;;;;5116242;28;20084;-55
2021/04/07 02:10:29;;;;;;;12.23;5.93;;;;;;;;;;5116204;28;20047;-55
2021/04/07 02:12:56;;;;;;;11.77;5.30;;;;;;;;;;5116152;28;20073;-55
2021/04/07 02:15:24;;;;;;;13.00;7.40;;;;;;;;;;5116109;28;20026;-55
2021/04/07 02:17:51;;;;;;;14.33;7.60;;;;;;;;;;5116016;28;20050;-55
2021/04/07 02:20:18;;;;;;;13.27;7.23;;;;;;;;;;5116129;28;20094;-55
2021/04/07 02:22:48;;;;;;;18.10;7.13;;;;;;;;;;5115952;28;20023;-55
2021/04/07 02:25:15;;;;;;;15.23;7.97;;;;;;;;;;5116003;28;20019;-55
2021/04/07 02:27:42;;;;;;;12.33;6.90;;;;;;;;;;5115493;27;20078;-55
2021/04/07 02:30:10;;;;;;;11.30;7.53;;;;;;;;;;5115807;28;20032;-55
2021/04/07 02:32:37;;;;;;;13.10;8.23;;;;;;;;;;5115904;28;20020;-55
2021/04/07 02:35:04;;;;;;;18.43;8.63;;;;;;;;;;5115740;28;20500;-55
2021/04/07 02:37:31;;;;;;;16.23;8.13;;;;;;;;;;5115647;28;20481;-55
2021/04/07 02:40:01;;;;;;;11.60;6.70;;;;;;;;;;5115628;28;20470;-55
2021/04/07 02:42:28;;;;;;;11.57;6.63;;;;;;;;;;5115518;28;20119;-55
2021/04/07 02:44:55;;;;;;;10.70;6.23;;;;;;;;;;5115660;28;20019;-55
2021/04/07 02:47:21;;;;;;;12.30;5.80;;;;;;;;;;5115550;28;20032;-55
2021/04/07 02:49:48;;;;;;;9.93;6.47;;;;;;;;;;5115560;28;20024;-55
2021/04/07 02:52:15;;;;;;;12.37;6.50;;;;;;;;;;5097200;28;20535;-55
2021/04/07 02:54:42;;;;;;;8.90;6.30;;;;;;;;;;5115389;28;20031;-54
2021/04/07 02:57:11;;;;;;;12.33;6.80;;;;;;;;;;5115380;28;20024;-55
2021/04/07 02:59:38;;;;;;;14.70;8.00;;;;;;;;;;5115305;28;20031;-54
2021/04/07 03:02:06;;;;;;;10.27;6.67;;;;;;;;;;5115228;28;20032;-54
2021/04/07 03:04:33;;;;;;;10.00;5.90;;;;;;;;;;5115514;28;20032;-54
2021/04/07 03:07:00;;;;;;;10.47;6.60;;;;;;;;;;5115117;28;20020;-55
2021/04/07 03:09:27;;;;;;;13.30;6.73;;;;;;;;;;5096302;28;20146;-55
2021/04/07 03:11:54;;;;;;;10.87;6.83;;;;;;;;;;5113970;28;20060;-54
2021/04/07 03:14:21;;;;;;;14.17;6.83;;;;;;;;;;5115059;28;20023;-54
2021/04/07 03:16:47;;;;;;;14.80;6.73;;;;;;;;;;5114986;28;20480;-54
2021/04/07 03:19:14;;;;;;;14.50;8.23;;;;;;;;;;5114940;28;20573;-54
2021/04/07 03:21:41;;;;;;;16.50;8.57;;;;;;;;;;5114777;28;20360;-54
2021/04/07 03:24:08;;;;;;;12.37;7.50;;;;;;;;;;5114585;28;20375;-54
2021/04/07 03:26:35;;;;;;;13.70;7.57;;;;;;;;;;5114457;28;20043;-54
2021/04/07 03:29:02;;;;;;;13.20;7.83;;;;;;;;;;5115026;28;20035;-54
2021/04/07 03:31:28;;;;;;;14.03;8.57;;;;;;;;;;5114691;28;20428;-54
2021/04/07 03:33:55;;;;;;;15.87;7.77;;;;;;;;;;5114609;28;20032;-54
2021/04/07 03:36:22;;;;;;;14.93;8.17;;;;;;;;;;5114508;28;20020;-54
2021/04/07 03:38:49;;;;;;;13.87;8.17;;;;;;;;;;5114498;28;20438;-54
2021/04/07 03:41:16;;;;;;;29.13;9.67;;;;;;;;;;5114535;28;20020;-54
2021/04/07 03:43:42;;;;;;;12.40;7.47;;;;;;;;;;5114322;28;20039;-54
2021/04/07 03:46:09;;;;;;;10.43;6.27;;;;;;;;;;5114263;28;20024;-54
2021/04/07 03:48:36;;;;;;;11.50;6.83;;;;;;;;;;5114358;28;20031;-54
2021/04/07 03:51:03;;;;;;;12.17;6.90;;;;;;;;;;5114277;28;20045;-54
2021/04/07 03:53:31;;;;;;;17.83;7.57;;;;;;;;;;5114218;28;20030;-54
2021/04/07 03:55:58;;;;;;;13.10;8.27;;;;;;;;;;5114036;28;20039;-54
2021/04/07 03:58:25;;;;;;;11.57;7.00;;;;;;;;;;5114071;28;20027;-54
2021/04/07 04:00:53;;;;;;;10.27;6.83;;;;;;;;;;5114015;28;20030;-54
2021/04/07 04:03:20;;;;;;;15.97;7.40;;;;;;;;;;5113796;28;20031;-54
2021/04/07 04:05:47;;;;;;;14.77;7.60;;;;;;;;;;5113917;28;20493;-54
2021/04/07 04:08:14;;;;;;;14.60;8.03;;;;;;;;;;5113957;28;20030;-54
2021/04/07 04:10:41;;;;;;;11.07;7.23;;;;;;;;;;5113978;28;20356;-54
2021/04/07 04:13:07;;;;;;;15.43;7.03;;;;;;;;;;5113967;28;20070;-53
2021/04/07 04:15:35;;;;;;;9.37;6.40;;;;;;;;;;5113879;28;20471;-53
2021/04/07 04:18:02;;;;;;;14.33;7.23;;;;;;;;;;5113913;28;20020;-54
2021/04/07 04:20:29;;;;;;;12.70;6.77;;;;;;;;;;5113829;28;20081;-54
2021/04/07 04:22:55;;;;;;;12.60;7.10;;;;;;;;;;5113456;28;20084;-54
2021/04/07 04:25:23;;;;;;;15.23;8.40;;;;;;;;;;5113693;28;20030;-54
2021/04/07 04:27:50;;;;;;;12.93;7.43;;;;;;;;;;5113238;28;20048;-54
2021/04/07 04:30:21;;;;;;;10.10;6.57;;;;;;;;;;5113704;28;20028;-54
2021/04/07 04:32:49;;;;;;;12.80;6.50;;;;;;;;;;5113560;28;20028;-54
2021/04/07 04:35:16;;;;;;;12.53;7.57;;;;;;;;;;5113535;28;20046;-54
2021/04/07 04:37:43;;;;;;;10.20;6.30;;;;;;;;;;5113519;28;20100;-54
2021/04/07 04:40:11;;;;;;;9.73;6.73;;;;;;;;;;5113493;28;20088;-54
2021/04/07 04:42:38;;;;;;;14.37;7.60;;;;;;;;;;5113456;28;20073;-54
2021/04/07 04:45:08;;;;;;;11.33;6.47;;;;;;;;;;5113370;28;20420;-54
2021/04/07 04:47:35;;;;;;;13.90;6.50;;;;;;;;;;5113436;28;20031;-54
2021/04/07 04:50:03;;;;;;;15.50;8.53;;;;;;;;;;5113463;28;20030;-54
2021/04/07 04:52:30;;;;;;;10.40;7.03;;;;;;;;;;5113278;28;20020;-54
2021/04/07 04:54:57;;;;;;;14.37;7.67;;;;;;;;;;5113316;28;20136;-54
2021/04/07 04:57:24;;;;;;;12.93;7.57;;;;;;;;;;5113254;28;20020;-54
2021/04/07 04:59:50;;;;;;;12.07;7.60;;;;;;;;;;5113250;28;20024;-54
2021/04/07 05:02:17;;;;;;;13.20;6.83;;;;;;;;;;5113241;28;20438;-54
2021/04/07 05:04:44;;;;;;;11.43;6.90;;;;;;;;;;5113664;28;20080;-54
2021/04/07 05:07:11;;;;;;;10.43;6.87;;;;;;;;;;5113204;28;20531;-54
2021/04/07 05:09:38;;;;;;;9.87;6.60;;;;;;;;;;5113126;28;20024;-54
2021/04/07 05:12:05;;;;;;;9.33;5.77;;;;;;;;;;5113138;28;20028;-54
2021/04/07 05:14:31;;;;;;;10.13;6.83;;;;;;;;;;5113152;28;20023;-54
2021/04/07 05:16:58;;;;;;;12.67;8.00;;;;;;;;;;5113081;28;20019;-54
2021/04/07 05:19:25;;;;;;;14.43;6.60;;;;;;;;;;5113381;28;20356;-54
2021/04/07 05:21:52;;;;;;;13.33;6.77;;;;;;;;;;5113119;28;20020;-54
2021/04/07 05:24:18;;;;;;;15.73;7.17;;;;;;;;;;5112993;28;20101;-54
2021/04/07 05:26:45;;;;;;;10.70;6.23;;;;;;;;;;5112545;28;20047;-54
2021/04/07 05:29:12;;;;;;;14.27;5.80;;;;;;;;;;5113036;28;20028;-54
2021/04/07 05:31:39;;;;;;;10.43;6.20;;;;;;;;;;5112906;28;20054;-54
2021/04/07 05:34:06;;;;;;;10.67;6.00;;;;;;;;;;5112945;28;20061;-54
2021/04/07 05:36:33;;;;;;;10.70;6.43;;;;;;;;;;5115909;28;20107;-54
2021/04/07 05:38:59;;;;;;;14.57;7.67;;;;;;;;;;5116861;28;20030;-54
2021/04/07 05:41:26;;;;;;;12.27;7.20;;;;;;;;;;5116823;28;20035;-54
2021/04/07 05:43:53;;;;;;;11.70;7.00;;;;;;;;;;5116751;28;20032;-54
2021/04/07 05:46:20;;;;;;;11.23;6.30;;;;;;;;;;5116802;28;20024;-54
2021/04/07 05:48:47;;;;;;;12.97;6.60;;;;;;;;;;5116690;28;20039;-54
2021/04/07 05:51:14;;;;;;;9.17;5.83;;;;;;;;;;5116658;28;20062;-54
2021/04/07 05:53:40;;;;;;;9.10;5.43;;;;;;;;;;5116711;28;20024;-54
2021/04/07 05:56:07;;;;;;;11.90;5.27;;;;;;;;;;5116435;28;20028;-54
2021/04/07 05:58:34;;;;;;;10.87;6.47;;;;;;;;;;5116597;28;20024;-54
2021/04/07 06:01:01;;;;;;;8.77;5.40;;;;;;;;;;5116501;28;20035;-54
2021/04/07 06:03:27;;;;;;;8.93;5.17;;;;;;;;;;5116217;28;20046;-54
2021/04/07 06:05:54;;;;;;;10.43;5.70;;;;;;;;;;5116283;28;20030;-54
2021/04/07 06:08:21;;;;;;;12.93;6.43;;;;;;;;;;5116251;28;20080;-54
2021/04/07 06:10:49;;;;;;;12.63;5.33;;;;;;;;;;5116304;28;20095;-54
2021/04/07 06:13:17;;;;;;;6.40;4.77;;;;;;;;;;5116322;28;20027;-53
2021/04/07 06:15:44;;;;;;;11.07;4.83;;;;;;;;;;5116341;28;20103;-54
2021/04/07 06:18:13;;;;;;;8.57;4.63;;;;;;;;;;5116115;28;20390;-54
2021/04/07 06:20:44;;;;;;;9.60;5.40;;;;;;;;;;5116099;28;20019;-54
2021/04/07 06:23:11;;;;;;;8.67;5.47;;;;;;;;;;5115930;28;20036;-54
2021/04/07 06:25:38;;;;;;;9.37;4.90;;;;;;;;;;5115852;28;20512;-54
2021/04/07 06:28:07;;;;;;;11.00;5.60;;;;;;;;;;5115623;27;20447;-53
2021/04/07 06:30:45;;;;;;;9.47;5.57;;;;;;;;;;5115918;28;20482;-53
2021/04/07 06:33:22;;;;;;;10.87;5.87;;;;;;;;;;5115915;28;20456;-54
2021/04/07 06:36:09;;;;;;;10.63;6.03;;;;;;;;;;5115721;28;20059;-54
2021/04/07 06:38:36;;;;;;;9.97;6.43;;;;;;;;;;5115896;28;20035;-53
2021/04/07 06:41:03;;;;;;;10.77;6.10;;;;;;;;;;5115734;28;20368;-54
2021/04/07 06:43:31;;;;;;;10.17;6.10;;;;;;;;;;5115539;28;20439;-54
2021/04/07 06:45:58;;;;;;;9.43;6.27;;;;;;;;;;5115314;28;20028;-53
2021/04/07 06:48:25;;;;;;;10.47;6.03;;;;;;;;;;5115484;28;20035;-54
2021/04/07 06:50:54;;;;;;;8.80;6.27;;;;;;;;;;5115567;28;20024;-54
2021/04/07 06:53:24;;;;;;;8.60;5.90;;;;;;;;;;5115596;28;20027;-54
2021/04/07 06:55:51;;;;;;;10.23;5.50;;;;;;;;;;5115336;28;20080;-53
2021/04/07 06:58:18;;;;;;;10.37;5.40;;;;;;;;;;5115354;28;20039;-53
2021/04/07 07:00:45;;;;;;;8.67;5.30;;;;;;;;;;5115302;28;20028;-54
2021/04/07 07:03:17;;;;;;;8.83;5.27;;;;;;;;;;5115089;28;20428;-54
2021/04/07 07:05:45;;;;;;;9.50;6.10;;;;;;;;;;5115222;28;20209;-54
2021/04/07 07:08:13;;;;;;;12.43;7.60;;;;;;;;;;5115246;28;20020;-54
2021/04/07 07:11:03;;;;;;;14.00;7.20;;;;;;;;;;5115085;28;20543;-53
2021/04/07 07:13:30;;;;;;;15.30;7.87;;;;;;;;;;5114271;28;20024;-53
2021/04/07 07:15:56;;;;;;;14.83;8.13;;;;;;;;;;5114940;28;20023;-53
2021/04/07 07:18:24;;;;;;;14.70;8.00;;;;;;;;;;5114939;28;20016;-53
2021/04/07 07:20:51;;;;;;;17.03;7.83;;;;;;;;;;5114974;28;20091;-54
2021/04/07 07:23:23;;;;;;;7.97;6.23;;;;;;;;;;5114771;28;20042;-54
2021/04/07 07:26:00;;;;;;;12.80;6.50;;;;;;;;;;5114957;28;20019;-53
2021/04/07 07:28:28;;;;;;;9.73;6.50;;;;;;;;;;5094357;28;20127;-54
2021/04/07 07:30:55;;;;;;;11.00;6.30;;;;;;;;;;5094359;28;20035;-53
2021/04/07 07:33:25;;;;;;;10.40;5.97;;;;;;;;;;5094304;28;20036;-54
2021/04/07 07:35:52;;;;;;;10.83;6.30;;;;;;;;;;5094451;28;20089;-53
2021/04/07 07:38:27;;;;;;;9.93;6.17;;;;;;;;;;5094222;28;20027;-54
2021/04/07 07:41:04;;;;;;;9.43;5.85;;;;;;;;;;5094222;28;20485;-54
2021/04/07 07:43:31;;;;;;;9.80;5.20;;;;;;;;;;5094053;28;20065;-54
2021/04/07 07:45:57;;;;;;;7.80;5.73;;;;;;;;;;5093998;28;20062;-54
2021/04/07 07:48:31;;;;;;;9.07;5.70;;;;;;;;;;5094051;28;20066;-54
2021/04/07 07:50:58;;;;;;;10.48;5.22;;;;;;;;;;5094038;28;20024;-54
2021/04/07 07:53:25;;;;;;;9.80;5.13;;;;;;;;;;5094026;28;20479;-54
2021/04/07 07:55:53;;;;;;;9.00;5.70;;;;;;;;;;5093916;28;20494;-54
2021/04/07 07:58:26;;;;;;;8.37;5.50;;;;;;;;;;5093302;28;20036;-54
2021/04/07 08:01:16;;;;;;;9.20;5.27;;;;;;;;;;5093928;28;20020;-54
2021/04/07 08:03:47;;;;;;;7.07;5.43;;;;;;;;;;5093655;28;20036;-53
2021/04/07 08:06:14;;;;;;;10.30;5.33;;;;;;;;;;5093699;28;20024;-53
2021/04/07 08:08:41;;;;;;;8.67;5.50;;;;;;;;;;5093724;28;20028;-54
2021/04/07 08:11:08;;;;;;;13.03;6.20;;;;;;;;;;5093640;28;20035;-54
2021/04/07 08:13:37;;;;;;;10.07;5.40;;;;;;;;;;5093527;28;20036;-54
2021/04/07 08:16:04;;;;;;;8.60;5.60;;;;;;;;;;5093474;28;20105;-53
2021/04/07 08:18:32;;;;;;;11.37;6.13;;;;;;;;;;5093520;28;20493;-53
2021/04/07 08:20:59;;;;;;;8.43;5.57;;;;;;;;;;5093454;28;20023;-54
2021/04/07 08:23:27;;;;;;;14.53;6.77;;;;;;;;;;5093366;28;20405;-53
2021/04/07 08:25:55;;;;;;;10.83;6.60;;;;;;;;;;5093296;28;20024;-54
2021/04/07 08:28:23;;;;;;;9.50;6.57;;;;;;;;;;5112682;28;20055;-53
2021/04/07 08:30:50;;;;;;;12.07;7.30;;;;;;;;;;5113558;28;20173;-53
2021/04/07 08:33:20;;;;;;;9.73;6.60;;;;;;;;;;5113510;28;20474;-53
2021/04/07 08:35:48;;;;;;;10.83;6.70;;;;;;;;;;5113550;28;20016;-54
2021/04/07 08:38:15;;;;;;;10.60;6.13;;;;;;;;;;5113565;28;20504;-54
2021/04/07 08:40:45;;;;;;;10.53;6.60;;;;;;;;;;5113598;28;20374;-54
2021/04/07 08:43:13;;;;;;;10.83;6.43;;;;;;;;;;5113750;28;20046;-53
2021/04/07 08:45:47;;;;;;;7.53;5.60;;;;;;;;;;5113319;28;20081;-53
2021/04/07 08:48:19;;;;;;;8.93;5.50;;;;;;;;;;5113423;28;20483;-53
2021/04/07 08:50:47;;;;;;;9.80;6.13;;;;;;;;;;5113375;28;20030;-54
2021/04/07 08:53:15;;;;;;;11.80;6.30;;;;;;;;;;5113485;28;20016;-54
2021/04/07 08:55:50;;;;;;;11.63;7.13;;;;;;;;;;5113275;28;20058;-54
2021/04/07 08:58:16;;;;;;;;;;;;;;;;;;5113693;28;20027;-53
2021/04/07 09:00:51;;;;;;;8.80;5.83;;;;;;;;;;5113224;28;20316;-54
2021/04/07 09:03:21;;;;;;;9.82;6.22;;;;;;;;;;5113036;28;20036;-54
2021/04/07 09:05:51;;;;;;;10.90;6.83;;;;;;;;;;5113161;28;20016;-53
2021/04/07 09:08:36;;;;;;;12.00;7.10;;;;;;;;;;5113122;28;20389;-54
2021/04/07 09:11:02;;;;;;;10.37;6.97;;;;;;;;;;5115559;28;20024;-53
2021/04/07 09:13:32;;;;;;;12.13;6.47;;;;;;;;;;5117413;28;20114;-54
2021/04/07 09:16:03;;;;;;;10.93;6.37;;;;;;;;;;5117347;28;20016;-54
2021/04/07 09:18:41;;;;;;;10.40;6.37;;;;;;;;;;5117301;28;20068;-53
2021/04/07 09:21:09;;;;;;;10.03;6.73;;;;;;;;;;5117201;28;20027;-54
2021/04/07 09:23:38;;;;;;;10.63;6.60;;;;;;;;;;5117121;28;20035;-53
2021/04/07 09:26:12;;;;;;;8.77;6.23;;;;;;;;;;5117015;28;20051;-53
2021/04/07 09:28:41;;;;;;;19.65;6.38;;;;;;;;;;5116884;28;20126;-53
2021/04/07 09:31:21;;;;;;;9.17;5.77;;;;;;;;;;5117031;28;20031;-54
2021/04/07 09:33:51;;;;;;;8.87;5.43;;;;;;;;;;5117090;28;20385;-53
2021/04/07 09:36:26;;;;;;;10.87;5.53;;;;;;;;;;5116860;28;20046;-54
2021/04/07 09:38:53;;;;;;;6.78;5.10;;;;;;;;;;5116880;28;20034;-53
2021/04/07 09:41:25;;;;;;;8.87;5.00;;;;;;;;;;5116815;28;20036;-53
2021/04/07 09:43:52;;;;;;;9.47;4.67;;;;;;;;;;5116726;28;20039;-53
2021/04/07 09:46:19;;;;;;;6.37;4.60;;;;;;;;;;5116774;28;20036;-53
2021/04/07 09:48:47;;;;;;;10.57;6.10;;;;;;;;;;5116724;28;20027;-53
2021/04/07 09:51:16;;;;;;;8.33;5.50;;;;;;;;;;5116778;28;20024;-53
2021/04/07 09:53:43;;;;;;;11.70;5.90;;;;;;;;;;5116994;28;20027;-54
2021/04/07 09:56:10;;;;;;;8.00;5.30;;;;;;;;;;5116540;28;20103;-54
2021/04/07 09:58:44;;;;;;;6.00;4.33;;;;;;;;;;5116494;28;20032;-53
2021/04/07 10:01:12;;;;;;;11.17;4.97;;;;;;;;;;5116551;28;20099;-53
2021/04/07 10:03:47;;;;;;;8.53;5.83;;;;;;;;;;5116313;28;20389;-54
2021/04/07 10:06:26;;;;;;;9.13;5.13;;;;;;;;;;5116398;28;20043;-53
2021/04/07 10:09:04;;;;;;;9.70;4.23;;;;;;;;;;5116328;28;20027;-54
2021/04/07 10:11:31;;;;;;;9.27;4.93;;;;;;;;;;5116253;28;20026;-53
2021/04/07 10:14:02;;;;;;;8.47;4.73;;;;;;;;;;5116347;28;20020;-54
2021/04/07 10:16:35;;;;;;;10.27;5.23;;;;;;;;;;5116060;28;20020;-53
2021/04/07 10:19:05;;;;;;;7.00;4.93;;;;;;;;;;5116168;28;20363;-54
2021/04/07 10:21:32;;;;;;;8.07;5.07;;;;;;;;;;5115835;28;20035;-54
2021/04/07 10:24:00;;;;;;;12.60;5.40;;;;;;;;;;5116317;28;20389;-54
2021/04/07 10:26:27;;;;;;;7.67;5.10;;;;;;;;;;5115526;27;20024;-54
2021/04/07 10:29:04;;;;;;;7.03;4.23;;;;;;;;;;5115970;28;20088;-54
2021/04/07 10:31:31;;;;;;;10.53;4.47;;;;;;;;;;5116032;28;20050;-53
2021/04/07 10:34:07;;;;;;;7.30;4.70;;;;;;;;;;5115827;28;20019;-53
2021/04/07 10:36:37;;;;;;;7.07;4.23;;;;;;;;;;5097433;28;20058;-54
2021/04/07 10:39:16;;;;;;;6.73;4.70;;;;;;;;;;5115698;28;20127;-53
2021/04/07 10:41:50;;;;;;;7.40;3.97;;;;;;;;;;5115614;28;20035;-54
2021/04/07 10:44:30;;;;;;;8.13;4.77;;;;;;;;;;5115578;28;20478;-53
2021/04/07 10:46:57;;;;;;;10.67;6.47;;;;;;;;;;5115513;28;20750;-53
2021/04/07 10:49:25;;;;;;;9.83;5.37;;;;;;;;;;5115915;28;20111;-53
2021/04/07 10:52:01;;;;;;;9.40;6.37;;;;;;;;;;5115476;28;20252;-53
2021/04/07 10:54:29;;;;;;;9.97;5.67;;;;;;;;;;5115577;28;20474;-53
2021/04/07 10:57:13;;;;;;;8.00;5.53;;;;;;;;;;5115367;28;20347;-53
2021/04/07 10:59:40;;;;;;;7.97;5.40;;;;;;;;;;5115531;28;20024;-53
2021/04/07 11:02:16;;;;;;;9.40;4.50;;;;;;;;;;5115191;28;20112;-53
2021/04/07 11:04:57;;;;;;;8.90;4.93;;;;;;;;;;5115134;28;20252;-53
2021/04/07 11:07:23;;;;;;;11.50;5.80;;;;;;;;;;5115237;28;20256;-53
2021/04/07 11:09:50;;;;;;;13.83;6.30;;;;;;;;;;5115147;28;20023;-54
2021/04/07 11:12:21;;;;;;;11.57;7.03;;;;;;;;;;5115054;28;20280;-53
2021/04/07 11:14:52;;;;;;;9.97;5.37;;;;;;;;;;5115048;28;20252;-54
2021/04/07 11:17:19;;;;;;;10.13;5.50;;;;;;;;;;5115326;28;20024;-53
2021/04/07 11:19:46;;;;;;;9.13;5.27;;;;;;;;;;5115226;28;20255;-54
2021/04/07 11:22:13;;;;;;;8.70;5.33;;;;;;;;;;5114983;28;20098;-53
2021/04/07 11:24:40;;;;;;;10.37;5.53;;;;;;;;;;5115122;28;20356;-54
2021/04/07 11:27:09;;;;;;;7.93;5.63;;;;;;;;;;5114426;28;20287;-53
2021/04/07 11:29:37;;;;;;;8.27;5.37;;;;;;;;;;5114755;28;20268;-53
2021/04/07 11:32:04;;;;;;;9.97;5.77;;;;;;;;;;5114509;28;20255;-54
2021/04/07 11:34:55;;;;;;;10.33;5.60;;;;;;;;;;5113902;28;20349;-53
2021/04/07 11:37:34;;;;;;;8.30;5.60;;;;;;;;;;5114470;28;20355;-53
2021/04/07 11:40:03;;;;;;;8.43;5.30;;;;;;;;;;5114558;28;20778;-53
2021/04/07 11:43:18;;;;;;;8.30;5.33;;;;;;;;;;5114438;28;20635;-53
2021/04/07 11:45:17;;;;;;;9.83;5.60;;;;;;;;;;5085055;28;20248;-53
2021/04/07 11:47:44;;;;;;;9.60;5.20;;;;;;;;;;5114440;28;20248;-53
2021/04/07 11:50:11;;;;;;;10.93;5.13;;;;;;;;;;5114345;28;20244;-53
2021/04/07 11:52:38;;;;;;;7.33;4.70;;;;;;;;;;5114306;28;20291;-54
2021/04/07 11:55:05;;;;;;;8.43;5.27;;;;;;;;;;5114260;28;20240;-53
2021/04/07 11:57:32;;;;;;;7.30;4.77;;;;;;;;;;5114315;28;20254;-54
2021/04/07 11:59:59;;;;;;;6.77;4.60;;;;;;;;;;5114259;28;20259;-54
2021/04/07 12:02:26;;;;;;;6.73;5.10;;;;;;;;;;5114253;28;20576;-53
2021/04/07 12:04:53;;;;;;;10.30;5.00;;;;;;;;;;5114144;28;20381;-53
2021/04/07 12:07:19;;;;;;;10.10;4.60;;;;;;;;;;5114099;28;20347;-54
2021/04/07 12:09:46;;;;;;;7.60;4.60;;;;;;;;;;5113975;28;20263;-53
2021/04/07 12:12:13;;;;;;;8.57;5.47;;;;;;;;;;5113966;28;20252;-53
2021/04/07 12:14:40;;;;;;;8.77;5.10;;;;;;;;;;5113995;28;20611;-53
2021/04/07 12:17:07;;;;;;;11.43;5.20;;;;;;;;;;5113955;28;20248;-53
2021/04/07 12:19:34;;;;;;;7.73;4.93;;;;;;;;;;5113762;28;20259;-53
2021/04/07 12:22:00;;;;;;;8.00;5.37;;;;;;;;;;5113710;28;20738;-53
2021/04/07 12:24:29;;;;;;;7.70;4.80;;;;;;;;;;5113641;28;20325;-53
2021/04/07 12:26:56;;;;;;;11.43;5.50;;;;;;;;;;5113408;27;20261;-54
2021/04/07 12:29:23;;;;;;;10.13;5.73;;;;;;;;;;5113689;28;20256;-53
2021/04/07 12:31:50;;;;;;;8.07;5.60;;;;;;;;;;5113578;28;20301;-53
2021/04/07 12:34:17;;;;;;;28.53;13.30;;;;;;;;;;5113700;28;20730;-53
2021/04/07 12:36:44;;;;;;;44.97;15.43;;;;;;;;;;5113543;28;20244;-53
2021/04/07 12:39:11;;;;;;;14.60;7.80;;;;;;;;;;5113520;28;20248;-53
2021/04/07 12:44:05;;;;;;;10.53;5.97;;;;;;;;;;5113160;28;20283;-53
2021/04/07 12:46:32;;;;;;;10.57;6.23;;;;;;;;;;5113486;28;20789;-53
2021/04/07 12:48:58;;;;;;;13.73;5.80;;;;;;;;;;5113470;28;20323;-52
2021/04/07 12:51:25;;;;;;;11.47;7.00;;;;;;;;;;5113324;28;20309;-53
2021/04/07 12:54:13;;;;;;;18.03;8.67;;;;;;;;;;5113329;28;20259;-53
2021/04/07 12:56:58;;;;;;;21.73;9.77;;;;;;;;;;5113270;28;20834;-53
2021/04/07 12:59:25;;;;;;;17.30;9.48;;;;;;;;;;5113254;28;20252;-53
2021/04/07 13:01:51;;;;;;;14.13;8.50;;;;;;;;;;5113330;28;20020;-54
2021/04/07 13:04:18;;;;;;;16.33;8.70;;;;;;;;;;5113005;28;20298;-53
2021/04/07 13:06:45;;;;;;;28.17;10.80;;;;;;;;;;5113230;28;20599;-53
2021/04/07 13:09:12;;;;;;;17.23;10.27;;;;;;;;;;5113154;28;20248;-53
2021/04/07 13:11:39;;;;;;;21.70;10.57;;;;;;;;;;5113132;28;20279;-53
2021/04/07 13:14:06;;;;;;;19.33;10.63;;;;;;;;;;5113125;28;20252;-53
2021/04/07 13:16:33;;;;;;;19.87;10.83;;;;;;;;;;5113100;28;20276;-53
2021/04/07 13:19:04;;;;;;;19.57;10.90;;;;;;;;;;5113026;28;20240;-53
2021/04/07 13:21:33;;;;;;;19.87;10.77;;;;;;;;;;5113033;28;20252;-53
2021/04/07 13:23:59;;;;;;;21.23;10.17;;;;;;;;;;5113034;28;20287;-53
2021/04/07 13:26:26;;;;;;;24.87;11.57;;;;;;;;;;5113014;28;20298;-53
2021/04/07 13:28:54;;;;;;;22.53;12.37;;;;;;;;;;5112824;28;20275;-53
2021/04/07 13:31:24;;;;;;;18.20;11.47;;;;;;;;;;5113065;28;20263;-54
2021/04/07 13:33:54;;;;;;;20.70;10.53;;;;;;;;;;5113048;28;20248;-53
2021/04/07 13:36:31;;;;;;;17.03;10.60;;;;;;;;;;5112963;28;20029;-54
2021/04/07 13:43:55;;;;;;;12.77;7.47;;;;;;;;;;5112953;28;20102;-54
2021/04/07 13:46:21;;;;;;;15.23;7.20;;;;;;;;;;5113055;28;20431;-54
2021/04/07 13:48:48;;;;;;;14.50;6.60;;;;;;;;;;5112890;28;20466;-54
2021/04/07 13:51:16;;;;;;;8.73;6.23;;;;;;;;;;5112821;28;20106;-54
2021/04/07 13:53:43;;;;;;;13.37;6.90;;;;;;;;;;5112925;28;20073;-54
2021/04/07 13:56:14;;;;;;;7.93;5.93;;;;;;;;;;5113482;28;20064;-54
2021/04/07 13:58:42;;;;;;;11.27;6.00;;;;;;;;;;5117117;28;20024;-54
2021/04/07 14:01:10;;;;;;;13.70;5.97;;;;;;;;;;5116567;28;20012;-54
2021/04/07 14:03:36;;;;;;;9.17;5.67;;;;;;;;;;5116327;28;20521;-53
2021/04/07 14:06:03;;;;;;;8.57;5.23;;;;;;;;;;5116702;28;20503;-53
2021/04/07 14:08:33;;;;;;;7.20;4.97;;;;;;;;;;5116325;28;20036;-54
2021/04/07 14:11:00;;;;;;;9.40;5.50;;;;;;;;;;5116281;28;20462;-54
2021/04/07 14:13:26;;;;;;;9.20;6.03;;;;;;;;;;5116384;28;20067;-54
2021/04/07 14:15:54;;;;;;;6.77;5.07;;;;;;;;;;5116232;28;20028;-54
2021/04/07 14:18:20;;;;;;;7.83;5.47;;;;;;;;;;5116429;28;20105;-54
2021/04/07 14:20:47;;;;;;;10.67;5.53;;;;;;;;;;5116130;28;20024;-54
2021/04/07 14:23:14;;;;;;;12.73;6.50;;;;;;;;;;5116045;28;20051;-54
2021/04/07 14:25:41;;;;;;;11.53;5.97;;;;;;;;;;5115921;28;20454;-54
2021/04/07 14:28:08;;;;;;;10.50;5.67;;;;;;;;;;5115631;27;20086;-54
2021/04/07 14:30:41;;;;;;;10.87;6.50;;;;;;;;;;5115899;28;20020;-55
2021/04/07 14:33:14;;;;;;;8.17;6.00;;;;;;;;;;5116009;28;20027;-54
2021/04/07 14:35:41;;;;;;;8.70;5.27;;;;;;;;;;5115768;28;20107;-54
2021/04/07 14:38:08;;;;;;;7.47;4.87;;;;;;;;;;5115796;28;20453;-54
2021/04/07 14:40:35;;;;;;;6.83;5.00;;;;;;;;;;5115813;28;20028;-54
2021/04/07 14:43:01;;;;;;;10.93;6.00;;;;;;;;;;5115704;28;20127;-54
2021/04/07 14:45:28;;;;;;;13.07;6.47;;;;;;;;;;5115561;28;20076;-54
2021/04/07 14:47:56;;;;;;;13.37;7.70;;;;;;;;;;5115613;28;20131;-54
2021/04/07 14:50:43;;;;;;;11.67;7.13;;;;;;;;;;5115574;28;20072;-54